Time;durP1;ratioP1;P1;durP2;ratioP2;P2;SDS_P1;SDS_P2;PMS_P1;PMS_P2;Temp;Humidity;BMP_temperature;BMP_pressure;BME280_temperature;BME280_humidity;BME280_pressure;Samples;Min_cycle;Max_cycle;Signal;HPM_P1;HPM_P2
2022/06/02 00:01:20;;;;;;;;;;;;;;;;;;5125844;28;19924;-73
2022/06/02 00:03:46;;;;;;;;;;;;;;;;;;5125511;28;19934;-73
2022/06/02 00:06:12;;;;;;;;;;;;;;;;;;5125499;28;20303;-73
2022/06/02 00:08:38;;;;;;;;;;;;;;;;;;5125517;28;19923;-72
2022/06/02 00:11:05;;;;;;;;;;;;;;;;;;5125508;28;19920;-73
2022/06/02 00:13:31;;;;;;;;;;;;;;;;;;5125457;28;19931;-73
2022/06/02 00:15:57;;;;;;;;;;;;;;;;;;5125196;28;19923;-72
2022/06/02 00:18:23;;;;;;;;;;;;;;;;;;5124611;28;20375;-73
2022/06/02 00:20:49;;;;;;;;;;;;;;;;;;5125472;28;19920;-73
2022/06/02 00:23:16;;;;;;;;;;;;;;;;;;5125344;28;19930;-73
2022/06/02 00:25:42;;;;;;;;;;;;;;;;;;5125368;28;19928;-73
2022/06/02 00:28:08;;;;;;;;;;;;;;;;;;5127539;28;19931;-72
2022/06/02 00:30:33;;;;;;;;;;;;;;;;;;5129104;28;19932;-72
2022/06/02 00:33:00;;;;;;;;;;;;;;;;;;5129124;28;20405;-72
2022/06/02 00:35:26;;;;;;;;;;;;;;;;;;5128618;28;20383;-73
2022/06/02 00:37:52;;;;;;;;;;;;;;;;;;5128665;28;19930;-73
2022/06/02 00:40:18;;;;;;;;;;;;;;;;;;5128662;28;19923;-72
2022/06/02 00:42:44;;;;;;;;;;;;;;;;;;5128493;28;19971;-72
2022/06/02 00:45:10;;;;;;;;;;;;;;;;;;5128659;28;19923;-72
2022/06/02 00:47:36;;;;;;;;;;;;;;;;;;5128627;28;19931;-72
2022/06/02 00:50:04;;;;;;;;;;;;;;;;;;5128323;28;19931;-72
2022/06/02 00:52:30;;;;;;;;;;;;;;;;;;5128335;28;20230;-72
2022/06/02 00:57:41;;;;;;;;;;;;;;;;;;5128341;28;19930;-72
2022/06/02 01:00:07;;;;;;;;;;;;;;;;;;5128275;28;19994;-73
2022/06/02 01:02:33;;;;;;;;;;;;;;;;;;5128218;27;19924;-72
2022/06/02 01:05:00;;;;;;;;;;;;;;;;;;5127999;28;20294;-72
2022/06/02 01:07:26;;;;;;;;;;;;;;;;;;5127959;28;19947;-73
2022/06/02 01:09:52;;;;;;;;;;;;;;;;;;5127932;28;19924;-73
2022/06/02 01:12:18;;;;;;;;;;;;;;;;;;5128230;28;20299;-73
2022/06/02 01:14:44;;;;;;;;;;;;;;;;;;5126619;28;19945;-73
2022/06/02 01:17:10;;;;;;;;;;;;;;;;;;5127879;28;19923;-73
2022/06/02 01:19:36;;;;;;;;;;;;;;;;;;5128029;28;19924;-73
2022/06/02 01:22:02;;;;;;;;;;;;;;;;;;5127839;28;19931;-73
2022/06/02 01:24:28;;;;;;;;;;;;;;;;;;5127807;28;19991;-73
2022/06/02 01:26:54;;;;;;;;;;;;;;;;;;5127462;28;19950;-73
2022/06/02 01:29:20;;;;;;;;;;;;;;;;;;5127875;28;19927;-73
2022/06/02 01:31:48;;;;;;;;;;;;;;;;;;5127543;28;19924;-73
2022/06/02 01:34:14;;;;;;;;;;;;;;;;;;5127533;28;19924;-73
2022/06/02 01:36:40;;;;;;;;;;;;;;;;;;5127556;28;19999;-73
2022/06/02 01:39:06;;;;;;;;;;;;;;;;;;5126526;28;19924;-73
2022/06/02 01:41:32;;;;;;;;;;;;;;;;;;5126191;28;19934;-73
2022/06/02 01:43:58;;;;;;;;;;;;;;;;;;5127430;27;19924;-73
2022/06/02 01:46:24;;;;;;;;;;;;;;;;;;5127302;28;19927;-73
2022/06/02 01:48:50;;;;;;;;;;;;;;;;;;5127138;28;20022;-73
2022/06/02 01:51:16;;;;;;;;;;;;;;;;;;5127322;28;19999;-73
2022/06/02 01:53:42;;;;;;;;;;;;;;;;;;5127041;28;19924;-74
2022/06/02 01:56:08;;;;;;;;;;;;;;;;;;5127207;28;19978;-73
2022/06/02 01:58:34;;;;;;;;;;;;;;;;;;5127418;28;19927;-74
2022/06/02 02:01:00;;;;;;;;;;;;;;;;;;5126962;28;20344;-73
2022/06/02 02:03:26;;;;;;;;;;;;;;;;;;5126986;28;19923;-73
2022/06/02 02:05:52;;;;;;;;;;;;;;;;;;5125438;28;19930;-73
2022/06/02 02:08:19;;;;;;;;;;;;;;;;;;5126897;28;19923;-73
2022/06/02 02:10:45;;;;;;;;;;;;;;;;;;5126727;28;19924;-73
2022/06/02 02:13:11;;;;;;;;;;;;;;;;;;5126955;28;19984;-73
2022/06/02 02:15:37;;;;;;;;;;;;;;;;;;5126925;28;20018;-73
2022/06/02 02:18:03;;;;;;;;;;;;;;;;;;5126806;28;20307;-73
2022/06/02 02:20:29;;;;;;;;;;;;;;;;;;5125448;28;19919;-73
2022/06/02 02:22:55;;;;;;;;;;;;;;;;;;5126456;27;19930;-74
2022/06/02 02:25:21;;;;;;;;;;;;;;;;;;5126471;28;19967;-73
2022/06/02 02:28:02;;;;;;;;;;;;;;;;;;5126728;27;20011;-73
2022/06/02 02:30:29;;;;;;;;;;;;;;;;;;5124948;28;19924;-73
2022/06/02 02:32:54;;;;;;;;;;;;;;;;;;5126387;28;19969;-73
2022/06/02 02:35:21;;;;;;;;;;;;;;;;;;5126397;28;19923;-73
2022/06/02 02:37:47;;;;;;;;;;;;;;;;;;5126236;28;19930;-73
2022/06/02 02:40:13;;;;;;;;;;;;;;;;;;5126400;28;19971;-73
2022/06/02 02:42:39;;;;;;;;;;;;;;;;;;5126565;28;19983;-73
2022/06/02 02:45:06;;;;;;;;;;;;;;;;;;5126293;28;19963;-73
2022/06/02 02:47:32;;;;;;;;;;;;;;;;;;5126166;28;19931;-73
2022/06/02 02:49:58;;;;;;;;;;;;;;;;;;5125872;28;20010;-73
2022/06/02 02:52:24;;;;;;;;;;;;;;;;;;5126053;28;20382;-72
2022/06/02 02:54:50;;;;;;;;;;;;;;;;;;5126133;28;19962;-73
2022/06/02 02:57:16;;;;;;;;;;;;;;;;;;5126133;28;20366;-73
2022/06/02 02:59:42;;;;;;;;;;;;;;;;;;5124768;28;19936;-73
2022/06/02 03:02:08;;;;;;;;;;;;;;;;;;5126066;28;20012;-73
2022/06/02 03:04:34;;;;;;;;;;;;;;;;;;5125684;28;19939;-73
2022/06/02 03:07:00;;;;;;;;;;;;;;;;;;5125832;28;19931;-73
2022/06/02 03:09:26;;;;;;;;;;;;;;;;;;5125639;27;19923;-73
2022/06/02 03:11:52;;;;;;;;;;;;;;;;;;5125919;28;19927;-73
2022/06/02 03:14:18;;;;;;;;;;;;;;;;;;5125497;28;19928;-73
2022/06/02 03:16:44;;;;;;;;;;;;;;;;;;5125907;28;19924;-73
2022/06/02 03:19:10;;;;;;;;;;;;;;;;;;5125839;28;19924;-73
2022/06/02 03:21:36;;;;;;;;;;;;;;;;;;5111681;28;20405;-73
2022/06/02 03:24:02;;;;;;;;;;;;;;;;;;5125528;28;19923;-73
2022/06/02 03:26:29;;;;;;;;;;;;;;;;;;5124363;28;19931;-73
2022/06/02 03:28:55;;;;;;;;;;;;;;;;;;5125777;28;19987;-73
2022/06/02 03:31:21;;;;;;;;;;;;;;;;;;5125730;28;20007;-73
2022/06/02 03:33:47;;;;;;;;;;;;;;;;;;5125535;28;19967;-73
2022/06/02 03:36:13;;;;;;;;;;;;;;;;;;5125591;28;19928;-73
2022/06/02 03:38:39;;;;;;;;;;;;;;;;;;5125232;28;19924;-73
2022/06/02 03:41:05;;;;;;;;;;;;;;;;;;5125849;28;19932;-73
2022/06/02 03:43:31;;;;;;;;;;;;;;;;;;5125471;28;19995;-74
2022/06/02 03:45:57;;;;;;;;;;;;;;;;;;5124220;28;19923;-73
2022/06/02 03:48:23;;;;;;;;;;;;;;;;;;5125585;28;19935;-74
2022/06/02 03:50:49;;;;;;;;;;;;;;;;;;5125249;28;19923;-73
2022/06/02 03:53:15;;;;;;;;;;;;;;;;;;5125349;28;19923;-73
2022/06/02 03:55:42;;;;;;;;;;;;;;;;;;5124340;28;20342;-73
2022/06/02 03:58:08;;;;;;;;;;;;;;;;;;5125542;28;20027;-74
2022/06/02 04:00:34;;;;;;;;;;;;;;;;;;5125377;28;19928;-74
2022/06/02 04:03:00;;;;;;;;;;;;;;;;;;5127223;28;19953;-72
2022/06/02 04:05:26;;;;;;;;;;;;;;;;;;5129274;28;19927;-73
2022/06/02 04:07:52;;;;;;;;;;;;;;;;;;5129165;28;20307;-73
2022/06/02 04:10:18;;;;;;;;;;;;;;;;;;5129337;28;19920;-73
2022/06/02 04:15:29;;;;;;;;;;;;;;;;;;5129189;28;19991;-73
2022/06/02 04:17:55;;;;;;;;;;;;;;;;;;5127832;28;19931;-73
2022/06/02 04:20:36;;;;;;;;;;;;;;;;;;5129051;28;19923;-73
2022/06/02 04:23:02;;;;;;;;;;;;;;;;;;5128777;28;19931;-75
2022/06/02 04:25:28;;;;;;;;;;;;;;;;;;5128856;28;20595;-74
2022/06/02 04:27:54;;;;;;;;;;;;;;;;;;5128956;28;19928;-74
2022/06/02 04:30:20;;;;;;;;;;;;;;;;;;5128945;28;19947;-73
2022/06/02 04:32:46;;;;;;;;;;;;;;;;;;5127517;28;19924;-72
2022/06/02 04:35:12;;;;;;;;;;;;;;;;;;5128832;28;19974;-72
2022/06/02 04:37:38;;;;;;;;;;;;;;;;;;5128610;28;19931;-72
2022/06/02 04:40:04;;;;;;;;;;;;;;;;;;5128581;28;19928;-73
2022/06/02 04:42:30;;;;;;;;;;;;;;;;;;5128795;28;19931;-73
2022/06/02 04:44:56;;;;;;;;;;;;;;;;;;5128530;28;20007;-73
2022/06/02 04:47:22;;;;;;;;;;;;;;;;;;5127016;28;19947;-73
2022/06/02 04:49:49;;;;;;;;;;;;;;;;;;5128633;28;19931;-73
2022/06/02 04:52:15;;;;;;;;;;;;;;;;;;5127125;28;19924;-73
2022/06/02 04:54:41;;;;;;;;;;;;;;;;;;5128418;28;19924;-73
2022/06/02 04:57:07;;;;;;;;;;;;;;;;;;5128499;28;19924;-73
2022/06/02 04:59:33;;;;;;;;;;;;;;;;;;5128391;28;19931;-73
2022/06/02 05:01:59;;;;;;;;;;;;;;;;;;5128339;28;19931;-73
2022/06/02 05:04:25;;;;;;;;;;;;;;;;;;5128035;28;19924;-73
2022/06/02 05:06:51;;;;;;;;;;;;;;;;;;5126899;28;19931;-73
2022/06/02 05:09:16;;;;;;;;;;;;;;;;;;5127892;28;19923;-74
2022/06/02 05:11:42;;;;;;;;;;;;;;;;;;5128193;28;19924;-73
2022/06/02 05:14:09;;;;;;;;;;;;;;;;;;5127871;28;19924;-73
2022/06/02 05:16:35;;;;;;;;;;;;;;;;;;5128162;28;19928;-73
2022/06/02 05:19:01;;;;;;;;;;;;;;;;;;5127901;28;19926;-73
2022/06/02 05:21:27;;;;;;;;;;;;;;;;;;5127890;28;20030;-73
2022/06/02 05:23:54;;;;;;;;;;;;;;;;;;5126555;28;19928;-73
2022/06/02 05:26:20;;;;;;;;;;;;;;;;;;5127739;28;19934;-73
2022/06/02 05:28:46;;;;;;;;;;;;;;;;;;5127831;27;19949;-73
2022/06/02 05:31:12;;;;;;;;;;;;;;;;;;5125188;28;19944;-73
2022/06/02 05:33:38;;;;;;;;;;;;;;;;;;5127327;28;19927;-73
2022/06/02 05:36:04;;;;;;;;;;;;;;;;;;5128314;27;19930;-73
2022/06/02 05:38:30;;;;;;;;;;;;;;;;;;5129314;27;20302;-74
2022/06/02 05:40:56;;;;;;;;;;;;;;;;;;5123330;28;19924;-74
2022/06/02 05:43:22;;;;;;;;;;;;;;;;;;5126027;28;19924;-74
2022/06/02 05:45:48;;;;;;;;;;;;;;;;;;5129833;27;19931;-73
2022/06/02 05:48:15;;;;;;;;;;;;;;;;;;5137867;27;19928;-73
2022/06/02 05:50:41;;;;;;;;;;;;;;;;;;5124631;27;19924;-74
2022/06/02 05:53:07;;;;;;;;;;;;;;;;;;5123795;28;19924;-73
2022/06/02 05:55:33;;;;;;;;;;;;;;;;;;5115280;28;20486;-73
2022/06/02 05:57:59;;;;;;;;;;;;;;;;;;5114696;28;19974;-73
2022/06/02 06:00:25;;;;;;;;;;;;;;;;;;5117025;28;20037;-73
2022/06/02 06:02:51;;;;;;;;;;;;;;;;;;5115033;28;19959;-73
2022/06/02 06:05:17;;;;;;;;;;;;;;;;;;5120130;28;19932;-73
2022/06/02 06:07:43;;;;;;;;;;;;;;;;;;5115337;28;20360;-73
2022/06/02 06:10:09;;;;;;;;;;;;;;;;;;5123434;28;19931;-73
2022/06/02 06:12:35;;;;;;;;;;;;;;;;;;5126323;28;19931;-73
2022/06/02 06:15:01;;;;;;;;;;;;;;;;;;5129107;27;19945;-73
2022/06/02 06:17:27;;;;;;;;;;;;;;;;;;5132183;27;19924;-73
2022/06/02 06:19:53;;;;;;;;;;;;;;;;;;5124733;27;19924;-73
2022/06/02 06:22:19;;;;;;;;;;;;;;;;;;5127436;27;19930;-73
2022/06/02 06:24:45;;;;;;;;;;;;;;;;;;5151803;27;20307;-72
2022/06/02 06:27:11;;;;;;;;;;;;;;;;;;5118444;27;19931;-72
2022/06/02 06:29:37;;;;;;;;;;;;;;;;;;5118755;28;19924;-73
2022/06/02 06:32:03;;;;;;;;;;;;;;;;;;5126460;28;19924;-72
2022/06/02 06:34:29;;;;;;;;;;;;;;;;;;5125185;28;19924;-72
2022/06/02 06:36:56;;;;;;;;;;;;;;;;;;5126431;28;19931;-72
2022/06/02 06:39:22;;;;;;;;;;;;;;;;;;5126372;28;19959;-72
2022/06/02 06:41:48;;;;;;;;;;;;;;;;;;5126348;28;19931;-72
2022/06/02 06:44:14;;;;;;;;;;;;;;;;;;5126320;28;19977;-72
2022/06/02 06:46:40;;;;;;;;;;;;;;;;;;5126200;28;19931;-72
2022/06/02 06:49:09;;;;;;;;;;;;;;;;;;5124752;28;19924;-73
2022/06/02 06:51:35;;;;;;;;;;;;;;;;;;5126189;28;19963;-73
2022/06/02 06:54:01;;;;;;;;;;;;;;;;;;5126238;28;19923;-73
2022/06/02 06:56:27;;;;;;;;;;;;;;;;;;5126217;28;19977;-73
2022/06/02 06:58:53;;;;;;;;;;;;;;;;;;5126223;28;19923;-73
2022/06/02 07:01:19;;;;;;;;;;;;;;;;;;5124611;28;19967;-73
2022/06/02 07:03:46;;;;;;;;;;;;;;;;;;5125838;28;19931;-73
2022/06/02 07:06:12;;;;;;;;;;;;;;;;;;5159097;27;19944;-73
2022/06/02 07:08:38;;;;;;;;;;;;;;;;;;5125975;28;19991;-73
2022/06/02 07:11:04;;;;;;;;;;;;;;;;;;5125733;28;19924;-73
2022/06/02 07:13:30;;;;;;;;;;;;;;;;;;5125900;28;19923;-73
2022/06/02 07:15:56;;;;;;;;;;;;;;;;;;5125736;28;20406;-73
2022/06/02 07:18:22;;;;;;;;;;;;;;;;;;5125841;28;19923;-73
2022/06/02 07:20:48;;;;;;;;;;;;;;;;;;5125868;28;19920;-73
2022/06/02 07:23:14;;;;;;;;;;;;;;;;;;5125579;28;19952;-73
2022/06/02 07:25:40;;;;;;;;;;;;;;;;;;5125788;28;19930;-73
2022/06/02 07:28:06;;;;;;;;;;;;;;;;;;5125955;27;19967;-73
2022/06/02 07:30:32;;;;;;;;;;;;;;;;;;5125437;28;19923;-73
2022/06/02 07:33:02;;;;;;;;;;;;;;;;;;5125546;28;19923;-73
2022/06/02 07:35:28;;;;;;;;;;;;;;;;;;5125731;28;19924;-73
2022/06/02 07:37:54;;;;;;;;;;;;;;;;;;5127417;28;20000;-73
2022/06/02 07:40:20;;;;;;;;;;;;;;;;;;5129971;28;19957;-72
2022/06/02 07:42:47;;;;;;;;;;;;;;;;;;5129937;28;19927;-73
2022/06/02 07:45:13;;;;;;;;;;;;;;;;;;5129789;28;19942;-73
2022/06/02 07:47:39;;;;;;;;;;;;;;;;;;5129948;28;19927;-73
2022/06/02 07:50:05;;;;;;;;;;;;;;;;;;5129631;28;20363;-73
2022/06/02 07:52:31;;;;;;;;;;;;;;;;;;5129653;28;19924;-71
2022/06/02 07:54:57;;;;;;;;;;;;;;;;;;5129620;28;19924;-73
2022/06/02 07:57:23;;;;;;;;;;;;;;;;;;5129611;28;20014;-73
2022/06/02 07:59:49;;;;;;;;;;;;;;;;;;5162693;27;19927;-72
2022/06/02 08:02:15;;;;;;;;;;;;;;;;;;5129486;28;19923;-72
2022/06/02 08:04:41;;;;;;;;;;;;;;;;;;5129407;28;19924;-73
2022/06/02 08:07:07;;;;;;;;;;;;;;;;;;5129410;28;19923;-73
2022/06/02 08:09:33;;;;;;;;;;;;;;;;;;5129102;28;19928;-72
2022/06/02 08:12:00;;;;;;;;;;;;;;;;;;5129426;28;19953;-72
2022/06/02 08:14:26;;;;;;;;;;;;;;;;;;5129171;28;19930;-72
2022/06/02 08:16:52;;;;;;;;;;;;;;;;;;5129181;28;19924;-73
2022/06/02 08:19:18;;;;;;;;;;;;;;;;;;5129195;28;19923;-73
2022/06/02 08:21:44;;;;;;;;;;;;;;;;;;5128999;28;19938;-73
2022/06/02 08:24:10;;;;;;;;;;;;;;;;;;5129077;28;19924;-73
2022/06/02 08:26:36;;;;;;;;;;;;;;;;;;5128883;28;19924;-73
2022/06/02 08:29:02;;;;;;;;;;;;;;;;;;5129142;28;19935;-73
2022/06/02 08:31:28;;;;;;;;;;;;;;;;;;5128972;28;19924;-73
2022/06/02 08:33:54;;;;;;;;;;;;;;;;;;5128838;28;20022;-73
2022/06/02 08:36:20;;;;;;;;;;;;;;;;;;5128836;28;20031;-73
2022/06/02 08:38:49;;;;;;;;;;;;;;;;;;5128486;28;19927;-73
2022/06/02 08:41:33;;;;;;;;;;;;;;;;;;5128744;28;19930;-73
2022/06/02 08:43:59;;;;;;;;;;;;;;;;;;5128697;28;19945;-72
2022/06/02 08:46:25;;;;;;;;;;;;;;;;;;5128547;28;19931;-72
2022/06/02 08:48:51;;;;;;;;;;;;;;;;;;5127960;28;19959;-72
2022/06/02 08:51:17;;;;;;;;;;;;;;;;;;5127451;28;19924;-72
2022/06/02 08:53:43;;;;;;;;;;;;;;;;;;5128390;28;19924;-72
2022/06/02 08:56:09;;;;;;;;;;;;;;;;;;5128517;28;19945;-72
2022/06/02 08:58:35;;;;;;;;;;;;;;;;;;5128329;28;19924;-73
2022/06/02 09:01:01;;;;;;;;;;;;;;;;;;5128185;28;19924;-73
2022/06/02 09:03:28;;;;;;;;;;;;;;;;;;5128027;28;19931;-72
2022/06/02 09:05:54;;;;;;;;;;;;;;;;;;5128325;28;19938;-72
2022/06/02 09:08:20;;;;;;;;;;;;;;;;;;5127981;28;20322;-73
2022/06/02 09:10:46;;;;;;;;;;;;;;;;;;5128068;28;20403;-72
2022/06/02 09:13:12;;;;;;;;;;;;;;;;;;5126806;28;19927;-72
2022/06/02 09:15:38;;;;;;;;;;;;;;;;;;5128221;28;19927;-72
2022/06/02 09:18:04;;;;;;;;;;;;;;;;;;5127902;28;19967;-72
2022/06/02 09:20:30;;;;;;;;;;;;;;;;;;5127730;28;20039;-72
2022/06/02 09:22:56;;;;;;;;;;;;;;;;;;5127781;28;20062;-72
2022/06/02 09:25:22;;;;;;;;;;;;;;;;;;5127743;28;19963;-72
2022/06/02 09:27:48;;;;;;;;;;;;;;;;;;5160887;27;19923;-71
2022/06/02 09:30:14;;;;;;;;;;;;;;;;;;5127919;27;19924;-72
2022/06/02 09:32:40;;;;;;;;;;;;;;;;;;5127573;28;19949;-72
2022/06/02 09:35:06;;;;;;;;;;;;;;;;;;5127812;28;20003;-72
2022/06/02 09:37:32;;;;;;;;;;;;;;;;;;5126450;28;19977;-72
2022/06/02 09:39:58;;;;;;;;;;;;;;;;;;5127467;28;19924;-72
2022/06/02 09:42:24;;;;;;;;;;;;;;;;;;5125903;28;20333;-70
2022/06/02 09:44:50;;;;;;;;;;;;;;;;;;5127585;28;19923;-71
2022/06/02 09:47:16;;;;;;;;;;;;;;;;;;5127370;28;19924;-72
2022/06/02 09:49:42;;;;;;;;;;;;;;;;;;5127359;28;19931;-71
2022/06/02 09:52:08;;;;;;;;;;;;;;;;;;5126101;28;19924;-72
2022/06/02 09:54:34;;;;;;;;;;;;;;;;;;5125968;28;19923;-71
2022/06/02 09:57:00;;;;;;;;;;;;;;;;;;5127334;28;20299;-71
2022/06/02 09:59:26;;;;;;;;;;;;;;;;;;5126775;28;19923;-72
2022/06/02 10:01:54;;;;;;;;;;;;;;;;;;5126743;28;19930;-72
2022/06/02 10:04:20;;;;;;;;;;;;;;;;;;5126877;28;19923;-72
2022/06/02 10:06:46;;;;;;;;;;;;;;;;;;5126979;28;19930;-71
2022/06/02 10:09:12;;;;;;;;;;;;;;;;;;5126802;28;20006;-70
2022/06/02 10:11:38;;;;;;;;;;;;;;;;;;5126875;28;19927;-71
2022/06/02 10:14:04;;;;;;;;;;;;;;;;;;5127032;28;20376;-70
2022/06/02 10:16:30;;;;;;;;;;;;;;;;;;5126851;28;19984;-72
2022/06/02 10:18:56;;;;;;;;;;;;;;;;;;5126897;27;19981;-71
2022/06/02 10:21:22;;;;;;;;;;;;;;;;;;5126697;27;19967;-72
2022/06/02 10:23:48;;;;;;;;;;;;;;;;;;5126638;28;19923;-73
2022/06/02 10:26:14;;;;;;;;;;;;;;;;;;5126367;28;20307;-70
2022/06/02 10:28:40;;;;;;;;;;;;;;;;;;5126410;28;19931;-71
2022/06/02 10:31:06;;;;;;;;;;;;;;;;;;5126538;28;19924;-72
2022/06/02 10:33:32;;;;;;;;;;;;;;;;;;5124970;28;19930;-71
2022/06/02 10:35:58;;;;;;;;;;;;;;;;;;5126552;28;19975;-71
2022/06/02 10:38:24;;;;;;;;;;;;;;;;;;5124817;28;20314;-71
2022/06/02 10:40:50;;;;;;;;;;;;;;;;;;5126386;28;19962;-71
2022/06/02 10:43:16;;;;;;;;;;;;;;;;;;5126597;28;19924;-71
2022/06/02 10:45:42;;;;;;;;;;;;;;;;;;5125996;28;19923;-71
2022/06/02 10:48:10;;;;;;;;;;;;;;;;;;5125494;28;20304;-70
2022/06/02 10:50:36;;;;;;;;;;;;;;;;;;5125841;28;19932;-70
2022/06/02 10:53:02;;;;;;;;;;;;;;;;;;5126224;28;19946;-69
2022/06/02 10:55:28;;;;;;;;;;;;;;;;;;5124769;28;19984;-70
2022/06/02 10:57:55;;;;;;;;;;;;;;;;;;5126130;28;19923;-70
2022/06/02 11:00:21;;;;;;;;;;;;;;;;;;5126381;28;20348;-70
2022/06/02 11:02:47;;;;;;;;;;;;;;;;;;5125836;28;19984;-71
2022/06/02 11:05:13;;;;;;;;;;;;;;;;;;5126034;28;19974;-70
2022/06/02 11:07:39;;;;;;;;;;;;;;;;;;5125771;28;19924;-70
2022/06/02 11:10:05;;;;;;;;;;;;;;;;;;5125700;27;19930;-70
2022/06/02 11:12:31;;;;;;;;;;;;;;;;;;5125786;28;19924;-70
2022/06/02 11:14:57;;;;;;;;;;;;;;;;;;5126015;28;19924;-70
2022/06/02 11:17:23;;;;;;;;;;;;;;;;;;5125585;28;19950;-71
2022/06/02 11:19:49;;;;;;;;;;;;;;;;;;5125789;28;19924;-70
2022/06/02 11:22:15;;;;;;;;;;;;;;;;;;5126077;28;19931;-70
2022/06/02 11:24:41;;;;;;;;;;;;;;;;;;5125398;28;20014;-70
2022/06/02 11:27:08;;;;;;;;;;;;;;;;;;5125636;28;19994;-70
2022/06/02 11:29:34;;;;;;;;;;;;;;;;;;5125894;27;19927;-70
2022/06/02 11:32:00;;;;;;;;;;;;;;;;;;5125613;28;19924;-69
2022/06/02 11:34:26;;;;;;;;;;;;;;;;;;5125578;28;19924;-70
2022/06/02 11:36:52;;;;;;;;;;;;;;;;;;5125296;27;20303;-70
2022/06/02 11:39:18;;;;;;;;;;;;;;;;;;5124048;28;19924;-70
2022/06/02 11:41:44;;;;;;;;;;;;;;;;;;5125554;28;19935;-70
2022/06/02 11:44:10;;;;;;;;;;;;;;;;;;5125501;28;19923;-71
2022/06/02 11:46:38;;;;;;;;;;;;;;;;;;5125475;28;19987;-70
2022/06/02 11:49:04;;;;;;;;;;;;;;;;;;5125480;28;20414;-70
2022/06/02 11:51:30;;;;;;;;;;;;;;;;;;5125341;28;19924;-70
2022/06/02 11:53:57;;;;;;;;;;;;;;;;;;5125074;28;19967;-70
2022/06/02 11:56:23;;;;;;;;;;;;;;;;;;5125528;28;19927;-70
2022/06/02 11:58:49;;;;;;;;;;;;;;;;;;5123950;28;19979;-69
2022/06/02 12:01:15;;;;;;;;;;;;;;;;;;5123989;28;20014;-69
2022/06/02 12:03:41;;;;;;;;;;;;;;;;;;5125221;27;20018;-71
2022/06/02 12:06:07;;;;;;;;;;;;;;;;;;5125256;28;20344;-70
2022/06/02 12:08:33;;;;;;;;;;;;;;;;;;5125162;28;19924;-69
2022/06/02 12:10:59;;;;;;;;;;;;;;;;;;5125164;27;20358;-70
2022/06/02 12:13:25;;;;;;;;;;;;;;;;;;5125158;28;19984;-70
2022/06/02 12:15:51;;;;;;;;;;;;;;;;;;5125279;28;19924;-71
2022/06/02 12:18:19;;;;;;;;;;;;;;;;;;5125364;28;19923;-70
2022/06/02 12:20:45;;;;;;;;;;;;;;;;;;5125363;28;19927;-70
2022/06/02 12:23:11;;;;;;;;;;;;;;;;;;5125457;28;20053;-69
2022/06/02 12:25:37;;;;;;;;;;;;;;;;;;5128921;28;19923;-70
2022/06/02 12:28:03;;;;;;;;;;;;;;;;;;5129038;28;20406;-70
2022/06/02 12:30:29;;;;;;;;;;;;;;;;;;5127676;28;19931;-71
2022/06/02 12:32:55;;;;;;;;;;;;;;;;;;5128734;28;19924;-71
2022/06/02 12:35:21;;;;;;;;;;;;;;;;;;5128604;28;19967;-70
2022/06/02 12:37:47;;;;;;;;;;;;;;;;;;5128776;28;19931;-71
2022/06/02 12:40:13;;;;;;;;;;;;;;;;;;5128548;28;19924;-70
2022/06/02 12:42:39;;;;;;;;;;;;;;;;;;5128744;28;19946;-70
2022/06/02 12:45:05;;;;;;;;;;;;;;;;;;5128623;28;20351;-70
2022/06/02 12:47:31;;;;;;;;;;;;;;;;;;5128545;28;19935;-71
2022/06/02 12:49:57;;;;;;;;;;;;;;;;;;5128539;28;19931;-71
2022/06/02 12:52:23;;;;;;;;;;;;;;;;;;5128349;28;19923;-71
2022/06/02 12:54:49;;;;;;;;;;;;;;;;;;5128383;28;19969;-71
2022/06/02 12:57:15;;;;;;;;;;;;;;;;;;5128393;28;19924;-71
2022/06/02 12:59:41;;;;;;;;;;;;;;;;;;5128323;28;19928;-71
2022/06/02 13:02:07;;;;;;;;;;;;;;;;;;5128249;28;19926;-70
2022/06/02 13:04:34;;;;;;;;;;;;;;;;;;5128236;28;19924;-70
2022/06/02 13:07:00;;;;;;;;;;;;;;;;;;5128266;28;19924;-71
2022/06/02 13:09:26;;;;;;;;;;;;;;;;;;5127827;28;19928;-71
2022/06/02 13:11:52;;;;;;;;;;;;;;;;;;5128090;28;19989;-71
2022/06/02 13:14:19;;;;;;;;;;;;;;;;;;5126575;28;19924;-71
2022/06/02 13:16:45;;;;;;;;;;;;;;;;;;5128060;28;19957;-71
2022/06/02 13:19:11;;;;;;;;;;;;;;;;;;5127742;28;19924;-70
2022/06/02 13:21:37;;;;;;;;;;;;;;;;;;5127709;28;19930;-70
2022/06/02 13:24:03;;;;;;;;;;;;;;;;;;5127675;28;19931;-69
2022/06/02 13:26:30;;;;;;;;;;;;;;;;;;5127876;28;19924;-70
2022/06/02 13:28:56;;;;;;;;;;;;;;;;;;5127815;28;19924;-70
2022/06/02 13:31:22;;;;;;;;;;;;;;;;;;5127866;28;19970;-70
2022/06/02 13:33:48;;;;;;;;;;;;;;;;;;5127476;28;19963;-70
2022/06/02 13:36:14;;;;;;;;;;;;;;;;;;5126460;28;19927;-70
2022/06/02 13:38:40;;;;;;;;;;;;;;;;;;5127401;28;20005;-70
2022/06/02 13:41:06;;;;;;;;;;;;;;;;;;5126263;28;19976;-70
2022/06/02 13:43:32;;;;;;;;;;;;;;;;;;5127369;28;20309;-71
2022/06/02 13:45:58;;;;;;;;;;;;;;;;;;5127541;28;19924;-71
2022/06/02 13:48:24;;;;;;;;;;;;;;;;;;5127485;28;19928;-70
2022/06/02 13:50:50;;;;;;;;;;;;;;;;;;5127116;28;19924;-70
2022/06/02 13:53:16;;;;;;;;;;;;;;;;;;5125800;28;19939;-69
2022/06/02 13:58:27;;;;;;;;;;;;;;;;;;5127442;28;19924;-70
2022/06/02 14:00:53;;;;;;;;;;;;;;;;;;5127205;28;19925;-70
2022/06/02 14:03:19;;;;;;;;;;;;;;;;;;5127219;28;19939;-71
2022/06/02 14:05:45;;;;;;;;;;;;;;;;;;5126816;28;19920;-71
2022/06/02 14:08:11;;;;;;;;;;;;;;;;;;5125779;28;19928;-70
2022/06/02 14:10:37;;;;;;;;;;;;;;;;;;5126925;28;20403;-70
2022/06/02 14:13:03;;;;;;;;;;;;;;;;;;5127015;28;19919;-70
2022/06/02 14:15:29;;;;;;;;;;;;;;;;;;5126990;28;19946;-70
2022/06/02 14:17:55;;;;;;;;;;;;;;;;;;5126831;28;19927;-70
2022/06/02 14:20:21;;;;;;;;;;;;;;;;;;5126829;28;19924;-71
2022/06/02 14:22:47;;;;;;;;;;;;;;;;;;5126787;28;19923;-72
2022/06/02 14:25:13;;;;;;;;;;;;;;;;;;5126449;27;20042;-71
2022/06/02 14:27:39;;;;;;;;;;;;;;;;;;5126753;27;20403;-71
2022/06/02 14:30:05;;;;;;;;;;;;;;;;;;5125364;28;19931;-72
2022/06/02 14:32:31;;;;;;;;;;;;;;;;;;5126664;28;19924;-71
2022/06/02 14:34:59;;;;;;;;;;;;;;;;;;5126231;28;19924;-71
2022/06/02 14:37:25;;;;;;;;;;;;;;;;;;5126424;27;19924;-72
2022/06/02 14:39:51;;;;;;;;;;;;;;;;;;5126352;28;19974;-71
2022/06/02 14:42:17;;;;;;;;;;;;;;;;;;5126411;28;19928;-70
2022/06/02 14:44:43;;;;;;;;;;;;;;;;;;5126288;28;19931;-70
2022/06/02 14:47:09;;;;;;;;;;;;;;;;;;5125535;28;20304;-70
2022/06/02 14:49:35;;;;;;;;;;;;;;;;;;5126103;28;19985;-71
2022/06/02 14:52:01;;;;;;;;;;;;;;;;;;5126361;28;19923;-70
2022/06/02 14:54:27;;;;;;;;;;;;;;;;;;5125995;28;20379;-71
2022/06/02 14:56:53;;;;;;;;;;;;;;;;;;5126226;28;19992;-70
2022/06/02 14:59:19;;;;;;;;;;;;;;;;;;5125955;27;19924;-70
2022/06/02 15:01:45;;;;;;;;;;;;;;;;;;5126045;28;19923;-71
2022/06/02 15:04:15;;;;;;;;;;;;;;;;;;5125767;28;19927;-70
2022/06/02 15:06:41;;;;;;;;;;;;;;;;;;5125721;28;20414;-71
2022/06/02 15:09:07;;;;;;;;;;;;;;;;;;5125788;28;19945;-70
2022/06/02 15:11:33;;;;;;;;;;;;;;;;;;5126116;28;19924;-70
2022/06/02 15:13:59;;;;;;;;;;;;;;;;;;5125953;28;19992;-71
2022/06/02 15:16:25;;;;;;;;;;;;;;;;;;5125813;28;19931;-70
2022/06/02 15:18:51;;;;;;;;;;;;;;;;;;5125613;28;19919;-71
2022/06/02 15:21:17;;;;;;;;;;;;;;;;;;5125786;28;19935;-70
2022/06/02 15:23:43;;;;;;;;;;;;;;;;;;5125698;28;19923;-70
2022/06/02 15:26:10;;;;;;;;;;;;;;;;;;5125664;28;19928;-70
2022/06/02 15:28:36;;;;;;;;;;;;;;;;;;5125603;27;19924;-70
2022/06/02 15:31:03;;;;;;;;;;;;;;;;;;5125621;28;19928;-69
2022/06/02 15:33:29;;;;;;;;;;;;;;;;;;5125398;28;19930;-70
2022/06/02 15:35:55;;;;;;;;;;;;;;;;;;5125953;28;20018;-70
2022/06/02 15:38:21;;;;;;;;;;;;;;;;;;5125530;28;19946;-70
2022/06/02 15:40:47;;;;;;;;;;;;;;;;;;5111313;28;19934;-70
2022/06/02 15:43:13;;;;;;;;;;;;;;;;;;5125653;28;19924;-70
2022/06/02 15:45:39;;;;;;;;;;;;;;;;;;5125464;28;19969;-70
2022/06/02 15:48:06;;;;;;;;;;;;;;;;;;5125438;28;19928;-70
2022/06/02 15:50:32;;;;;;;;;;;;;;;;;;5124115;28;19924;-70
2022/06/02 15:52:58;;;;;;;;;;;;;;;;;;5125692;28;19971;-70
2022/06/02 15:55:24;;;;;;;;;;;;;;;;;;5125142;27;19963;-70
2022/06/02 15:57:50;;;;;;;;;;;;;;;;;;5125436;28;19920;-70
2022/06/02 16:00:16;;;;;;;;;;;;;;;;;;5129567;28;19928;-70
2022/06/02 16:02:42;;;;;;;;;;;;;;;;;;5129289;28;19931;-69
2022/06/02 16:05:08;;;;;;;;;;;;;;;;;;5129506;28;19927;-69
2022/06/02 16:07:34;;;;;;;;;;;;;;;;;;5129282;28;19928;-69
2022/06/02 16:12:45;;;;;;;;;;;;;;;;;;5129291;28;19923;-70
2022/06/02 16:15:11;;;;;;;;;;;;;;;;;;5129172;28;19927;-70
2022/06/02 16:17:37;;;;;;;;;;;;;;;;;;5129531;28;20014;-69
2022/06/02 16:20:03;;;;;;;;;;;;;;;;;;5129326;28;19976;-69
2022/06/02 16:22:29;;;;;;;;;;;;;;;;;;5129028;28;19924;-69
2022/06/02 16:24:55;;;;;;;;;;;;;;;;;;5128903;27;19924;-70
2022/06/02 16:27:21;;;;;;;;;;;;;;;;;;5162385;27;20252;-69
2022/06/02 16:29:48;;;;;;;;;;;;;;;;;;5128940;28;19928;-69
2022/06/02 16:32:14;;;;;;;;;;;;;;;;;;5128908;28;19927;-69
2022/06/02 16:34:40;;;;;;;;;;;;;;;;;;5128652;28;19920;-69
2022/06/02 16:37:06;;;;;;;;;;;;;;;;;;5127065;27;19924;-70
2022/06/02 16:39:32;;;;;;;;;;;;;;;;;;5122665;27;19928;-70
2022/06/02 16:41:58;;;;;;;;;;;;;;;;;;5137182;27;19920;-69
2022/06/02 16:44:25;;;;;;;;;;;;;;;;;;5141729;27;20016;-70
2022/06/02 16:46:51;;;;;;;;;;;;;;;;;;5131329;27;20458;-69
2022/06/02 16:49:17;;;;;;;;;;;;;;;;;;5130148;27;20356;-68